createdAt,value
2015-12-26T00:00:00.605Z,74838
2015-12-26T00:00:13.058Z,74832
2015-12-26T00:00:25.405Z,74834
2015-12-26T00:00:37.764Z,74828
2015-12-26T00:00:50.124Z,74828
2015-12-26T00:01:02.327Z,74836
2015-12-26T00:01:14.686Z,74832
2015-12-26T00:01:27.063Z,74824
2015-12-26T00:01:39.438Z,74822
2015-12-26T00:01:51.797Z,74830
2015-12-26T00:02:03.469Z,74829
2015-12-26T00:02:15.860Z,74830
2015-12-26T00:02:28.254Z,74838
2015-12-26T00:02:40.660Z,74829
2015-12-26T00:02:53.004Z,74830
2015-12-26T00:03:05.363Z,74835
2015-12-26T00:03:17.707Z,74829
2015-12-26T00:03:30.069Z,74826
2015-12-26T00:03:42.413Z,74829
2015-12-26T00:03:54.772Z,74824
2015-12-26T00:04:07.116Z,74832
2015-12-26T00:04:19.460Z,74834
2015-12-26T00:04:31.822Z,74832
2015-12-26T00:04:44.166Z,74838
2015-12-26T00:04:55.838Z,74833
2015-12-26T00:05:08.197Z,74829
2015-12-26T00:05:20.572Z,74823
2015-12-26T00:05:32.965Z,74829
2015-12-26T00:05:45.355Z,74829
2015-12-26T00:05:57.730Z,74830
2015-12-26T00:06:10.121Z,74819
2015-12-26T00:06:22.468Z,74820
2015-12-26T00:06:34.827Z,74823
2015-12-26T00:06:47.186Z,74819
2015-12-26T00:06:59.546Z,74831
2015-12-26T00:07:11.905Z,74826
2015-12-26T00:07:24.252Z,74827
2015-12-26T00:07:36.611Z,74835
2015-12-26T00:07:48.971Z,74827
2015-12-26T00:08:01.330Z,74826
2015-12-26T00:08:13.674Z,74827
2015-12-26T00:08:26.052Z,74826
2015-12-26T00:08:38.427Z,74824
2015-12-26T00:08:50.802Z,74826
2015-12-26T00:09:03.177Z,74824
2015-12-26T00:09:15.567Z,74822
2015-12-26T00:09:27.944Z,74833
2015-12-26T00:09:40.335Z,74837
2015-12-26T00:09:52.710Z,74832
2015-12-26T00:10:05.101Z,74830
2015-12-26T00:10:17.476Z,74824
2015-12-26T00:10:29.837Z,74829
2015-12-26T00:10:42.181Z,74832
2015-12-26T00:10:54.540Z,74828
2015-12-26T00:11:06.900Z,74827
2015-12-26T00:11:19.243Z,74824
2015-12-26T00:11:31.606Z,74824
2015-12-26T00:11:43.981Z,74820
2015-12-26T00:11:56.340Z,74819
2015-12-26T00:12:08.684Z,74823
2015-12-26T00:12:21.043Z,74823
2015-12-26T00:12:33.452Z,74833
2015-12-26T00:12:45.827Z,74829
2015-12-26T00:12:58.202Z,74825
2015-12-26T00:13:10.562Z,74825
2015-12-26T00:13:22.952Z,74825
2015-12-26T00:13:35.346Z,74828
2015-12-26T00:13:47.721Z,74827
2015-12-26T00:14:00.112Z,74829
2015-12-26T00:14:12.502Z,74832
2015-12-26T00:14:24.893Z,74825
2015-12-26T00:14:37.271Z,74830
2015-12-26T00:14:49.615Z,74835
2015-12-26T00:15:01.974Z,74829
2015-12-26T00:15:14.318Z,74828
2015-12-26T00:15:26.677Z,74823
2015-12-26T00:15:39.040Z,74825
2015-12-26T00:15:51.399Z,74822
2015-12-26T00:16:03.743Z,74827
2015-12-26T00:16:16.102Z,74821
2015-12-26T00:16:28.461Z,74822
2015-12-26T00:16:40.808Z,74820
2015-12-26T00:16:53.183Z,74827
2015-12-26T00:17:05.543Z,74826
2015-12-26T00:17:17.902Z,74826
2015-12-26T00:17:30.293Z,74824
2015-12-26T00:17:42.686Z,74815
2015-12-26T00:17:55.077Z,74818
2015-12-26T00:18:07.467Z,74815
2015-12-26T00:18:19.842Z,74817
2015-12-26T00:18:32.202Z,74818
2015-12-26T00:18:44.563Z,74821
2015-12-26T00:18:56.923Z,74816
2015-12-26T00:19:09.266Z,74815
2015-12-26T00:19:21.610Z,74816
2015-12-26T00:19:33.969Z,74820
2015-12-26T00:19:46.426Z,74815
2015-12-26T00:19:58.785Z,74820
2015-12-26T00:20:11.129Z,74828
2015-12-26T00:20:23.035Z,74823
2015-12-26T00:20:35.394Z,74828
2015-12-26T00:20:47.772Z,74826
2015-12-26T00:21:00.132Z,74817
2015-12-26T00:21:12.507Z,74818
2015-12-26T00:21:24.882Z,74823
2015-12-26T00:21:37.272Z,74830
2015-12-26T00:21:49.665Z,74831
2015-12-26T00:22:02.040Z,74831
2015-12-26T00:22:14.415Z,74823
2015-12-26T00:22:26.790Z,74820
2015-12-26T00:22:39.134Z,74819
2015-12-26T00:22:51.496Z,74820
2015-12-26T00:23:03.855Z,74820
2015-12-26T00:23:16.199Z,74818
2015-12-26T00:23:28.559Z,74814
2015-12-26T00:23:40.934Z,74807
2015-12-26T00:23:53.280Z,74815
2015-12-26T00:24:05.624Z,74811
2015-12-26T00:24:17.983Z,74813
2015-12-26T00:24:30.358Z,74816
2015-12-26T00:24:42.733Z,74815
2015-12-26T00:24:55.110Z,74813
2015-12-26T00:25:07.501Z,74816
2015-12-26T00:25:19.876Z,74822
2015-12-26T00:25:31.532Z,74818
2015-12-26T00:25:43.939Z,74812
2015-12-26T00:25:56.332Z,74816
2015-12-26T00:26:08.692Z,74820
2015-12-26T00:26:21.035Z,74817
2015-12-26T00:26:33.395Z,74816
2015-12-26T00:26:45.770Z,74817
2015-12-26T00:26:57.413Z,74811
2015-12-26T00:27:09.773Z,74819
2015-12-26T00:27:22.132Z,74823
2015-12-26T00:27:34.491Z,74822
2015-12-26T00:27:46.851Z,74820
2015-12-26T00:27:59.197Z,74818
2015-12-26T00:28:11.556Z,74816
2015-12-26T00:28:23.915Z,74818
2015-12-26T00:28:35.572Z,74813
2015-12-26T00:28:47.931Z,74810
2015-12-26T00:29:00.310Z,74812
2015-12-26T00:29:12.685Z,74814
2015-12-26T00:29:25.076Z,74821
2015-12-26T00:29:37.466Z,74825
2015-12-26T00:29:49.857Z,74823
2015-12-26T00:30:02.265Z,74821
2015-12-26T00:30:14.624Z,74819
2015-12-26T00:30:26.984Z,74823
2015-12-26T00:30:39.343Z,74823
2015-12-26T00:30:51.687Z,74824
2015-12-26T00:31:04.049Z,74819
2015-12-26T00:31:16.393Z,74820
2015-12-26T00:31:28.752Z,74819
2015-12-26T00:31:41.112Z,74820
2015-12-26T00:31:53.456Z,74820
2015-12-26T00:32:05.817Z,74823
2015-12-26T00:32:18.176Z,74823
2015-12-26T00:32:30.551Z,74823
2015-12-26T00:32:42.911Z,74819
2015-12-26T00:32:55.286Z,74819
2015-12-26T00:33:07.679Z,74820
2015-12-26T00:33:20.054Z,74818
2015-12-26T00:33:32.445Z,74817
2015-12-26T00:33:44.851Z,74813
2015-12-26T00:33:57.242Z,74816
2015-12-26T00:34:09.620Z,74823
2015-12-26T00:34:21.964Z,74821
2015-12-26T00:34:34.323Z,74828
2015-12-26T00:34:46.667Z,74826
2015-12-26T00:34:58.873Z,74825
2015-12-26T00:35:11.232Z,74822
2015-12-26T00:35:23.592Z,74826
2015-12-26T00:35:35.951Z,74823
2015-12-26T00:35:48.295Z,74818
2015-12-26T00:36:00.657Z,74814
2015-12-26T00:36:12.860Z,74819
2015-12-26T00:36:25.235Z,74820
2015-12-26T00:36:37.595Z,74822
2015-12-26T00:36:49.970Z,74823
2015-12-26T00:37:02.207Z,74826
2015-12-26T00:37:14.582Z,74826
2015-12-26T00:37:26.973Z,74824
2015-12-26T00:37:39.363Z,74825
2015-12-26T00:37:51.613Z,74823
2015-12-26T00:38:03.959Z,74818
2015-12-26T00:38:16.303Z,74822
2015-12-26T00:38:28.662Z,74826
2015-12-26T00:38:41.021Z,74822
2015-12-26T00:38:53.365Z,74822
2015-12-26T00:39:05.023Z,74820
2015-12-26T00:39:17.367Z,74821
2015-12-26T00:39:29.727Z,74824
2015-12-26T00:39:42.070Z,74825
2015-12-26T00:39:54.430Z,74824
2015-12-26T00:40:06.808Z,74823
2015-12-26T00:40:19.167Z,74822
2015-12-26T00:40:31.542Z,74825
2015-12-26T00:40:43.948Z,74824
2015-12-26T00:40:56.339Z,74823
2015-12-26T00:41:08.718Z,74824
2015-12-26T00:41:21.109Z,74817
2015-12-26T00:41:33.484Z,74816
2015-12-26T00:41:45.843Z,74816
2015-12-26T00:41:58.187Z,74815
2015-12-26T00:42:10.548Z,74806
2015-12-26T00:42:22.907Z,74814
2015-12-26T00:42:35.267Z,74818
2015-12-26T00:42:47.626Z,74822
2015-12-26T00:42:59.986Z,74824
2015-12-26T00:43:12.348Z,74830
2015-12-26T00:43:24.692Z,74828
2015-12-26T00:43:37.051Z,74829
2015-12-26T00:43:49.426Z,74825
2015-12-26T00:44:01.082Z,74824
2015-12-26T00:44:13.444Z,74820
2015-12-26T00:44:25.834Z,74822
2015-12-26T00:44:38.225Z,74819
2015-12-26T00:44:50.600Z,74826
2015-12-26T00:45:03.006Z,74814
2015-12-26T00:45:15.384Z,74819
2015-12-26T00:45:27.744Z,74822
2015-12-26T00:45:40.103Z,74823
2015-12-26T00:45:52.447Z,74825
2015-12-26T00:46:04.806Z,74823
2015-12-26T00:46:17.153Z,74824
2015-12-26T00:46:29.512Z,74821
2015-12-26T00:46:41.872Z,74824
2015-12-26T00:46:54.231Z,74824
2015-12-26T00:47:06.575Z,74824
2015-12-26T00:47:18.937Z,74827
2015-12-26T00:47:31.312Z,74827
2015-12-26T00:47:42.812Z,74824
2015-12-26T00:47:55.187Z,74825
2015-12-26T00:48:07.546Z,74822
2015-12-26T00:48:19.939Z,74824
2015-12-26T00:48:32.314Z,74822
2015-12-26T00:48:44.705Z,74821
2015-12-26T00:48:57.080Z,74826
2015-12-26T00:49:09.423Z,74826
2015-12-26T00:49:21.786Z,74827
2015-12-26T00:49:34.145Z,74830
2015-12-26T00:49:46.505Z,74827
2015-12-26T00:49:58.880Z,74827
2015-12-26T00:50:11.223Z,74826
2015-12-26T00:50:23.586Z,74830
2015-12-26T00:50:35.945Z,74830
2015-12-26T00:50:48.304Z,74833
2015-12-26T00:51:00.664Z,74827
2015-12-26T00:51:13.041Z,74827
2015-12-26T00:51:25.400Z,74823
2015-12-26T00:51:37.791Z,74828
2015-12-26T00:51:50.166Z,74826
2015-12-26T00:52:02.556Z,74829
2015-12-26T00:52:14.950Z,74833
2015-12-26T00:52:27.341Z,74835
2015-12-26T00:52:39.700Z,74829
2015-12-26T00:52:52.059Z,74828
2015-12-26T00:53:04.403Z,74824
2015-12-26T00:53:16.766Z,74824
2015-12-26T00:53:29.125Z,74819
2015-12-26T00:53:41.469Z,74828
2015-12-26T00:53:53.828Z,74821
2015-12-26T00:54:06.187Z,74821
2015-12-26T00:54:18.533Z,74827
2015-12-26T00:54:30.893Z,74839
2015-12-26T00:54:43.252Z,74829
2015-12-26T00:54:55.643Z,74826
2015-12-26T00:55:08.002Z,74828
2015-12-26T00:55:20.380Z,74824
2015-12-26T00:55:32.771Z,74823
2015-12-26T00:55:45.161Z,74829
2015-12-26T00:55:57.536Z,74830
2015-12-26T00:56:09.927Z,74819
2015-12-26T00:56:22.305Z,74814
2015-12-26T00:56:34.664Z,74823
2015-12-26T00:56:47.008Z,74825
2015-12-26T00:56:59.352Z,74822
2015-12-26T00:57:11.711Z,74822
2015-12-26T00:57:24.072Z,74817
2015-12-26T00:57:36.432Z,74821
2015-12-26T00:57:48.776Z,74820
2015-12-26T00:58:01.135Z,74819
2015-12-26T00:58:13.479Z,74824
2015-12-26T00:58:25.841Z,74823
2015-12-26T00:58:37.497Z,74824
2015-12-26T00:58:49.872Z,74822
2015-12-26T00:59:02.232Z,74824
2015-12-26T00:59:14.610Z,74824
2015-12-26T00:59:27.000Z,74826
2015-12-26T00:59:39.391Z,74828
2015-12-26T00:59:51.735Z,74827
2015-12-26T01:00:04.094Z,74822
2015-12-26T01:00:16.425Z,74830
2015-12-26T01:00:28.785Z,74829
2015-12-26T01:00:41.128Z,74822
2015-12-26T01:00:53.488Z,74824
2015-12-26T01:01:05.831Z,74819
2015-12-26T01:01:18.225Z,74823
2015-12-26T01:01:30.569Z,74824
2015-12-26T01:01:42.944Z,74819
2015-12-26T01:01:55.303Z,74825
2015-12-26T01:02:07.678Z,74823
2015-12-26T01:02:20.055Z,74825
2015-12-26T01:02:32.446Z,74823
2015-12-26T01:02:44.836Z,74825
2015-12-26T01:02:57.211Z,74829
2015-12-26T01:03:09.586Z,74837
2015-12-26T01:03:21.964Z,74833
2015-12-26T01:03:34.308Z,74826
2015-12-26T01:03:46.668Z,74828
2015-12-26T01:03:59.027Z,74825
2015-12-26T01:04:11.371Z,74828
2015-12-26T01:04:23.732Z,74824
2015-12-26T01:04:36.091Z,74826
2015-12-26T01:04:48.466Z,74830
2015-12-26T01:05:00.826Z,74835
2015-12-26T01:05:13.201Z,74831
2015-12-26T01:05:25.579Z,74831
2015-12-26T01:05:37.969Z,74827
2015-12-26T01:05:50.344Z,74823
2015-12-26T01:06:02.735Z,74821
2015-12-26T01:06:15.141Z,74826
2015-12-26T01:06:27.504Z,74825
2015-12-26T01:06:39.863Z,74824
2015-12-26T01:06:52.222Z,74823
2015-12-26T01:07:04.582Z,74822
2015-12-26T01:07:16.926Z,74823
2015-12-26T01:07:29.288Z,74821
2015-12-26T01:07:41.632Z,74825
2015-12-26T01:07:54.007Z,74833
2015-12-26T01:08:06.366Z,74824
2015-12-26T01:08:18.713Z,74823
2015-12-26T01:08:31.088Z,74826
2015-12-26T01:08:43.463Z,74828
2015-12-26T01:08:55.838Z,74832
2015-12-26T01:09:08.213Z,74830
2015-12-26T01:09:20.605Z,74829
2015-12-26T01:09:32.980Z,74830
2015-12-26T01:09:45.340Z,74834
2015-12-26T01:09:57.684Z,74829
2015-12-26T01:10:10.043Z,74830
2015-12-26T01:10:22.389Z,74826
2015-12-26T01:10:34.748Z,74827
2015-12-26T01:10:47.107Z,74827
2015-12-26T01:10:58.748Z,74822
2015-12-26T01:11:11.107Z,74827
2015-12-26T01:11:22.736Z,74825
2015-12-26T01:11:35.111Z,74833
2015-12-26T01:11:47.486Z,74822
2015-12-26T01:11:59.861Z,74821
2015-12-26T01:12:12.221Z,74826
2015-12-26T01:12:24.629Z,74829
2015-12-26T01:12:37.004Z,74827
2015-12-26T01:12:49.379Z,74827
2015-12-26T01:13:01.754Z,74824
2015-12-26T01:13:14.145Z,74834
2015-12-26T01:13:26.507Z,74826
2015-12-26T01:13:38.866Z,74831
2015-12-26T01:13:51.241Z,74830
2015-12-26T01:14:03.601Z,74828
2015-12-26T01:14:15.945Z,74832
2015-12-26T01:14:28.307Z,74827
2015-12-26T01:14:40.666Z,74835
2015-12-26T01:14:53.010Z,74831
2015-12-26T01:15:05.354Z,74828
2015-12-26T01:15:17.698Z,74822
2015-12-26T01:15:30.075Z,74818
2015-12-26T01:15:42.450Z,74821
2015-12-26T01:15:54.825Z,74823
2015-12-26T01:16:07.200Z,74829
2015-12-26T01:16:19.590Z,74830
2015-12-26T01:16:31.969Z,74829
2015-12-26T01:16:44.360Z,74833
2015-12-26T01:16:56.766Z,74827
2015-12-26T01:17:09.157Z,74832
2015-12-26T01:17:21.563Z,74824
2015-12-26T01:17:33.910Z,74830
2015-12-26T01:17:46.269Z,74828
2015-12-26T01:17:58.628Z,74829
2015-12-26T01:18:10.988Z,74828
2015-12-26T01:18:23.332Z,74832
2015-12-26T01:18:35.693Z,74835
2015-12-26T01:18:48.052Z,74828
2015-12-26T01:19:00.412Z,74833
2015-12-26T01:19:12.771Z,74827
2015-12-26T01:19:25.115Z,74830
2015-12-26T01:19:37.493Z,74833
2015-12-26T01:19:49.852Z,74835
2015-12-26T01:20:02.227Z,74834
2015-12-26T01:20:14.602Z,74838
2015-12-26T01:20:27.024Z,74837
2015-12-26T01:20:39.401Z,74838
2015-12-26T01:20:51.792Z,74834
2015-12-26T01:21:04.198Z,74836
2015-12-26T01:21:16.573Z,74830
2015-12-26T01:21:28.948Z,74837
2015-12-26T01:21:41.138Z,74832
2015-12-26T01:22:24.092Z,74844
2015-12-26T01:22:41.376Z,74842
2015-12-26T01:22:53.751Z,74837
2015-12-26T01:23:06.110Z,74842
2015-12-26T01:23:18.454Z,74844
2015-12-26T01:23:30.813Z,74846
2015-12-26T01:23:43.191Z,74840
2015-12-26T01:23:55.566Z,74835
2015-12-26T01:24:07.926Z,74836
2015-12-26T01:24:20.301Z,74833
2015-12-26T01:24:32.707Z,74832
2015-12-26T01:24:45.101Z,74834
2015-12-26T01:24:57.491Z,74828
2015-12-26T01:25:09.882Z,74832
2015-12-26T01:25:22.257Z,74839
2015-12-26T01:25:34.663Z,74841
2015-12-26T01:25:47.024Z,74836
2015-12-26T01:25:59.368Z,74832
2015-12-26T01:26:11.728Z,74839
2015-12-26T01:26:24.087Z,74839
2015-12-26T01:26:36.431Z,74832
2015-12-26T01:26:48.793Z,74833
2015-12-26T01:27:01.152Z,74835
2015-12-26T01:27:13.496Z,74835
2015-12-26T01:27:25.856Z,74831
2015-12-26T01:27:38.215Z,74832
2015-12-26T01:27:50.576Z,74833
2015-12-26T01:28:02.951Z,74837
2015-12-26T01:28:15.311Z,74837
2015-12-26T01:28:27.717Z,74833
2015-12-26T01:28:40.092Z,74837
2015-12-26T01:28:52.470Z,74840
2015-12-26T01:29:04.845Z,74836
2015-12-26T01:29:17.267Z,74838
2015-12-26T01:29:29.626Z,74832
2015-12-26T01:29:41.970Z,74833
2015-12-26T01:29:54.364Z,74844
2015-12-26T01:30:06.723Z,74840
2015-12-26T01:30:19.067Z,74840
2015-12-26T01:30:31.426Z,74839
2015-12-26T01:30:43.801Z,74836
2015-12-26T01:30:56.148Z,74832
2015-12-26T01:31:08.507Z,74831
2015-12-26T01:31:20.867Z,74831
2015-12-26T01:31:33.226Z,74833
2015-12-26T01:31:45.585Z,74832
2015-12-26T01:31:57.962Z,74830
2015-12-26T01:32:10.165Z,74831
2015-12-26T01:32:22.556Z,74833
2015-12-26T01:32:34.931Z,74837
2015-12-26T01:32:47.353Z,74840
2015-12-26T01:32:59.732Z,74844
2015-12-26T01:33:12.107Z,74845
2015-12-26T01:33:23.748Z,74837
2015-12-26T01:33:36.107Z,74834
2015-12-26T01:33:48.451Z,74837
2015-12-26T01:34:00.813Z,74833
2015-12-26T01:34:13.172Z,74837
2015-12-26T01:34:25.532Z,74843
2015-12-26T01:34:37.876Z,74841
2015-12-26T01:34:50.235Z,74842
2015-12-26T01:35:02.581Z,74838
2015-12-26T01:35:14.784Z,74837
2015-12-26T01:35:27.159Z,74830
2015-12-26T01:35:39.534Z,74835
2015-12-26T01:35:51.909Z,74833
2015-12-26T01:36:04.287Z,74826
2015-12-26T01:36:16.693Z,74831
2015-12-26T01:36:29.068Z,74834
2015-12-26T01:36:41.459Z,74832
2015-12-26T01:36:53.834Z,74832
2015-12-26T01:37:06.211Z,74838
2015-12-26T01:37:18.570Z,74829
2015-12-26T01:37:30.898Z,74832
2015-12-26T01:37:43.242Z,74833
2015-12-26T01:37:55.586Z,74832
2015-12-26T01:38:07.948Z,74832
2015-12-26T01:38:20.292Z,74837
2015-12-26T01:38:32.651Z,74838
2015-12-26T01:38:44.995Z,74838
2015-12-26T01:38:57.370Z,74846
2015-12-26T01:39:09.717Z,74838
2015-12-26T01:39:22.076Z,74844
2015-12-26T01:39:34.435Z,74833
2015-12-26T01:39:46.810Z,74840
2015-12-26T01:39:58.467Z,74838
2015-12-26T01:40:10.829Z,74843
2015-12-26T01:40:23.204Z,74842
2015-12-26T01:40:35.595Z,74837
2015-12-26T01:40:47.985Z,74836
2015-12-26T01:41:00.376Z,74836
2015-12-26T01:41:12.753Z,74841
2015-12-26T01:41:25.128Z,74832
2015-12-26T01:41:37.503Z,74832
2015-12-26T01:41:49.847Z,74834
2015-12-26T01:42:02.065Z,74832
2015-12-26T01:42:14.413Z,74836
2015-12-26T01:42:26.773Z,74834
2015-12-26T01:42:39.148Z,74839
2015-12-26T01:42:51.491Z,74837
2015-12-26T01:43:03.851Z,74840
2015-12-26T01:43:16.212Z,74840
2015-12-26T01:43:28.571Z,74834
2015-12-26T01:43:40.915Z,74830
2015-12-26T01:43:53.290Z,74839
2015-12-26T01:44:05.665Z,74840
2015-12-26T01:44:18.027Z,74846
2015-12-26T01:44:30.402Z,74837
2015-12-26T01:44:42.792Z,74839
2015-12-26T01:44:55.183Z,74837
2015-12-26T01:45:07.576Z,74836
2015-12-26T01:45:19.967Z,74830
2015-12-26T01:45:32.358Z,74842
2015-12-26T01:45:44.748Z,74838
2015-12-26T01:45:57.139Z,74843
2015-12-26T01:46:09.486Z,74836
2015-12-26T01:46:21.845Z,74840
2015-12-26T01:46:34.189Z,74835
2015-12-26T01:46:46.564Z,74835
2015-12-26T01:46:58.923Z,74832
2015-12-26T01:47:11.270Z,74829
2015-12-26T01:47:23.645Z,74831
2015-12-26T01:47:35.989Z,74830
2015-12-26T01:47:48.348Z,74829
2015-12-26T01:48:00.707Z,74825
2015-12-26T01:48:13.069Z,74830
2015-12-26T01:48:25.444Z,74823
2015-12-26T01:48:37.819Z,74831
2015-12-26T01:48:50.209Z,74827
2015-12-26T01:49:02.584Z,74834
2015-12-26T01:49:14.978Z,74827
2015-12-26T01:49:27.353Z,74832
2015-12-26T01:49:39.728Z,74831
2015-12-26T01:49:52.134Z,74835
2015-12-26T01:50:04.525Z,74834
2015-12-26T01:50:16.871Z,74838
2015-12-26T01:50:29.230Z,74838
2015-12-26T01:50:41.433Z,74839
2015-12-26T01:50:53.793Z,74835
2015-12-26T01:51:06.152Z,74839
2015-12-26T01:51:18.499Z,74844
2015-12-26T01:51:30.858Z,74834
2015-12-26T01:51:43.217Z,74831
2015-12-26T01:51:55.577Z,74833
2015-12-26T01:52:07.952Z,74834
2015-12-26T01:52:20.314Z,74838
2015-12-26T01:52:32.689Z,74833
2015-12-26T01:52:45.095Z,74834
2015-12-26T01:52:56.767Z,74831
2015-12-26T01:53:09.142Z,74836
2015-12-26T01:53:21.536Z,74836
2015-12-26T01:53:33.911Z,74836
2015-12-26T01:53:46.130Z,74839
2015-12-26T01:53:58.473Z,74837
2015-12-26T01:54:10.833Z,74839
2015-12-26T01:54:23.180Z,74836
2015-12-26T01:54:35.539Z,74833
2015-12-26T01:54:47.898Z,74830
2015-12-26T01:55:00.258Z,74832
2015-12-26T01:55:12.620Z,74829
2015-12-26T01:55:24.964Z,74832
2015-12-26T01:55:37.339Z,74829
2015-12-26T01:55:49.714Z,74829
2015-12-26T01:56:02.089Z,74833
2015-12-26T01:56:14.481Z,74831
2015-12-26T01:56:26.856Z,74831
2015-12-26T01:56:39.278Z,74837
2015-12-26T01:56:51.685Z,74834
2015-12-26T01:57:04.060Z,74835
2015-12-26T01:57:16.438Z,74834
2015-12-26T01:57:28.781Z,74833
2015-12-26T01:57:41.141Z,74835
2015-12-26T01:57:53.500Z,74828
2015-12-26T01:58:05.859Z,74828
2015-12-26T01:58:17.503Z,74829
2015-12-26T01:58:29.862Z,74829
2015-12-26T01:58:42.222Z,74825
2015-12-26T01:58:54.581Z,74828
2015-12-26T01:59:06.925Z,74823
2015-12-26T01:59:19.286Z,74827
2015-12-26T01:59:31.646Z,74829
2015-12-26T01:59:44.005Z,74833
2015-12-26T01:59:56.364Z,74835
2015-12-26T02:00:08.755Z,74834
2015-12-26T02:00:21.133Z,74835
2015-12-26T02:00:33.539Z,74827
2015-12-26T02:00:45.883Z,74826
2015-12-26T02:00:58.242Z,74827
2015-12-26T02:01:10.602Z,74821
2015-12-26T02:01:22.963Z,74824
2015-12-26T02:01:35.323Z,74824
2015-12-26T02:01:47.682Z,74819
2015-12-26T02:02:00.026Z,74820
2015-12-26T02:02:12.385Z,74825
2015-12-26T02:02:24.747Z,74823
2015-12-26T02:02:37.107Z,74826
2015-12-26T02:02:49.482Z,74830
2015-12-26T02:03:01.857Z,74828
2015-12-26T02:03:14.232Z,74828
2015-12-26T02:03:26.610Z,74830
2015-12-26T02:03:38.844Z,74826
2015-12-26T02:03:51.235Z,74827
2015-12-26T02:04:03.641Z,74832
2015-12-26T02:04:15.329Z,74825
2015-12-26T02:04:27.675Z,74829
2015-12-26T02:04:40.035Z,74824
2015-12-26T02:04:52.378Z,74823
2015-12-26T02:05:04.019Z,74827
2015-12-26T02:05:16.363Z,74826
2015-12-26T02:05:28.725Z,74823
2015-12-26T02:05:40.366Z,74827
2015-12-26T02:05:52.741Z,74822
2015-12-26T02:06:05.085Z,74826
2015-12-26T02:06:17.444Z,74830
2015-12-26T02:06:29.806Z,74831
2015-12-26T02:06:42.181Z,74828
2015-12-26T02:06:54.541Z,74826
2015-12-26T02:07:06.759Z,74827
2015-12-26T02:07:19.150Z,74826
2015-12-26T02:07:31.528Z,74823
2015-12-26T02:07:43.903Z,74819
2015-12-26T02:07:56.294Z,74824
2015-12-26T02:08:08.684Z,74828
2015-12-26T02:08:21.028Z,74831
2015-12-26T02:08:33.374Z,74825
2015-12-26T02:08:45.733Z,74828
2015-12-26T02:08:58.077Z,74822
2015-12-26T02:09:10.452Z,74828
2015-12-26T02:09:22.796Z,74822
2015-12-26T02:09:35.158Z,74834
2015-12-26T02:09:47.517Z,74831
2015-12-26T02:09:59.892Z,74835
2015-12-26T02:10:12.236Z,74826
2015-12-26T02:10:24.627Z,74827
2015-12-26T02:10:37.004Z,74823
2015-12-26T02:10:49.363Z,74824
2015-12-26T02:11:01.754Z,74822
2015-12-26T02:11:14.129Z,74817
2015-12-26T02:11:26.519Z,74817
2015-12-26T02:11:38.913Z,74827
2015-12-26T02:11:51.288Z,74827
2015-12-26T02:12:03.647Z,74828
2015-12-26T02:12:15.976Z,74828
2015-12-26T02:12:28.319Z,74828
2015-12-26T02:12:40.683Z,74824
2015-12-26T02:12:53.011Z,74831
2015-12-26T02:13:05.370Z,74831
2015-12-26T02:13:17.011Z,74828
2015-12-26T02:13:29.370Z,74827
2015-12-26T02:13:41.747Z,74823
2015-12-26T02:13:54.107Z,74827
2015-12-26T02:14:06.482Z,74828
2015-12-26T02:14:18.841Z,74826
2015-12-26T02:14:31.216Z,74828
2015-12-26T02:14:43.610Z,74826
2015-12-26T02:14:56.000Z,74831
2015-12-26T02:15:08.375Z,74831
2015-12-26T02:15:20.766Z,74831
2015-12-26T02:15:33.156Z,74826
2015-12-26T02:15:45.534Z,74824
2015-12-26T02:15:57.894Z,74828
2015-12-26T02:16:10.253Z,74828
2015-12-26T02:16:22.613Z,74823
2015-12-26T02:16:34.972Z,74821
2015-12-26T02:16:47.318Z,74818
2015-12-26T02:16:59.677Z,74828
2015-12-26T02:17:12.036Z,74831
2015-12-26T02:17:24.396Z,74832
2015-12-26T02:17:36.740Z,74833
2015-12-26T02:17:49.102Z,74827
2015-12-26T02:18:01.477Z,74829
2015-12-26T02:18:13.852Z,74827
2015-12-26T02:18:26.243Z,74828
2015-12-26T02:18:38.618Z,74825
2015-12-26T02:18:51.011Z,74832
2015-12-26T02:19:03.402Z,74833
2015-12-26T02:19:15.777Z,74829
2015-12-26T02:19:28.183Z,74826
2015-12-26T02:19:40.542Z,74831
2015-12-26T02:19:52.905Z,74833
2015-12-26T02:20:05.264Z,74832
2015-12-26T02:20:17.624Z,74828
2015-12-26T02:20:29.983Z,74833
2015-12-26T02:20:42.327Z,74831
2015-12-26T02:20:54.688Z,74831
2015-12-26T02:21:07.032Z,74831
2015-12-26T02:21:19.391Z,74828
2015-12-26T02:21:31.751Z,74833
2015-12-26T02:21:44.126Z,74828
2015-12-26T02:21:56.504Z,74832
2015-12-26T02:22:08.863Z,74830
2015-12-26T02:22:21.254Z,74834
2015-12-26T02:22:33.644Z,74836
2015-12-26T02:22:46.019Z,74834
2015-12-26T02:22:58.381Z,74832
2015-12-26T02:23:10.740Z,74834
2015-12-26T02:23:23.084Z,74830
2015-12-26T02:23:35.443Z,74834
2015-12-26T02:23:47.802Z,74835
2015-12-26T02:24:00.150Z,74836
2015-12-26T02:24:12.510Z,74840
2015-12-26T02:24:24.869Z,74834
2015-12-26T02:24:37.213Z,74833
2015-12-26T02:24:49.572Z,74836
2015-12-26T02:25:01.950Z,74837
2015-12-26T02:25:14.325Z,74831
2015-12-26T02:25:26.684Z,74831
2015-12-26T02:25:39.075Z,74832
2015-12-26T02:25:51.466Z,74833
2015-12-26T02:26:03.858Z,74834
2015-12-26T02:26:16.233Z,74839
2015-12-26T02:26:28.608Z,74839
2015-12-26T02:26:40.952Z,74838
2015-12-26T02:26:53.311Z,74839
2015-12-26T02:27:05.673Z,74836
2015-12-26T02:27:18.017Z,74831
2015-12-26T02:27:30.376Z,74834
2015-12-26T02:27:42.720Z,74835
2015-12-26T02:27:55.079Z,74836
2015-12-26T02:28:07.427Z,74836
2015-12-26T02:28:19.786Z,74835
2015-12-26T02:28:31.427Z,74832
2015-12-26T02:28:43.802Z,74834
2015-12-26T02:28:56.177Z,74828
2015-12-26T02:29:08.538Z,74826
2015-12-26T02:29:20.929Z,74828
2015-12-26T02:29:33.319Z,74826
2015-12-26T02:29:45.694Z,74837
2015-12-26T02:29:58.085Z,74830
2015-12-26T02:30:10.494Z,74829
2015-12-26T02:30:22.885Z,74835
2015-12-26T02:30:35.229Z,74837
2015-12-26T02:30:47.588Z,74832
2015-12-26T02:30:59.947Z,74835
2015-12-26T02:31:11.591Z,74831
2015-12-26T02:31:23.935Z,74834
2015-12-26T02:31:36.294Z,74828
2015-12-26T02:31:48.638Z,74834
2015-12-26T02:32:00.997Z,74830
2015-12-26T02:32:13.359Z,74834
2015-12-26T02:32:25.718Z,74835
2015-12-26T02:32:38.077Z,74827
2015-12-26T02:32:50.452Z,74839
2015-12-26T02:33:02.827Z,74840
2015-12-26T02:33:15.205Z,74832
2015-12-26T02:33:27.580Z,74832
2015-12-26T02:33:39.971Z,74826
2015-12-26T02:33:52.346Z,74827
2015-12-26T02:34:04.737Z,74827
2015-12-26T02:34:17.146Z,74828
2015-12-26T02:34:29.490Z,74824
2015-12-26T02:34:41.849Z,74824
2015-12-26T02:34:54.208Z,74831
2015-12-26T02:35:06.555Z,74826
2015-12-26T02:35:18.196Z,74826
2015-12-26T02:35:30.555Z,74828
2015-12-26T02:35:42.899Z,74832
2015-12-26T02:35:55.243Z,74828
2015-12-26T02:36:06.901Z,74827
2015-12-26T02:36:19.245Z,74832
2015-12-26T02:36:31.604Z,74835
2015-12-26T02:36:44.010Z,74834
2015-12-26T02:36:56.385Z,74829
2015-12-26T02:37:08.763Z,74824
2015-12-26T02:37:21.138Z,74835
2015-12-26T02:37:33.529Z,74834
2015-12-26T02:37:45.201Z,74838
2015-12-26T02:37:57.591Z,74833
2015-12-26T02:38:09.954Z,74830
2015-12-26T02:38:22.313Z,74833
2015-12-26T02:38:34.657Z,74828
2015-12-26T02:38:47.016Z,74826
2015-12-26T02:38:59.376Z,74826
2015-12-26T02:39:11.737Z,74829
2015-12-26T02:39:24.081Z,74828